• Join FlightAware (Why Join?)
  • Login
  • US Flag 
05:15AM EDT


 

Airport Tracker/Info


-or-


 

Live Flight TrackerFlight Track Log ✈ XOJ578 ✈ 16-Jun-2013 ✈ KFRG - KTEB

Flight Track Log - Related Links

Times and Time Zones

All times are in EDT time to prevent confusion due to time zone crossing. See the XOJ578 flight status page for this flight to view local times or setup timezone preferences in your user account.

Time Position Orientation Groundspeed Altitude Reporting Facility
EDT Latitude Longitude Course Direction KTS MPH feet Rate Location/Type
10:48AM 40.7000 -73.4167 217° Southwest 180 207 1,500  Level New York TRACON
10:49AM 40.6667 -73.4500 217° Southwest 195 224 2,000 240 Climbing New York TRACON
10:50AM 40.6167 -73.4833 207° Southwest 192 221 2,000 420 Level New York TRACON
10:51AM 40.5667 -73.5167 207° Southwest 212 244 2,900 480 Climbing New York TRACON
10:52AM 40.5000 -73.5500 201° Southwest 247 284 3,000  Climbing New York TRACON
10:53AM 40.4333 -73.6000 210° Southwest 246 283 3,000  Level New York TRACON
10:54AM 40.4000 -73.6667 237° Southwest 248 285 3,000  Level New York TRACON
10:55AM 40.4000 -73.7667 270° West 248 285 3,000 120 Level New York TRACON
10:57AM 40.3290 -73.8767 230° Southwest  Level FlightAware Approximate
11:02AM 40.1500 -74.2333 323° Northwest 258 297 4,000  Level New York TRACON
11:03AM 40.1667 -74.3167 285° West 246 283 4,000  Level New York TRACON
11:04AM 40.1558 -74.3502 294° West  Level FlightAware Approximate
11:04AM 40.1833 -74.4000 285° West 250 288 4,000  Level New York TRACON
11:05AM 40.1832 -74.4326 294° West  Level FlightAware Approximate
11:05AM 40.2000 -74.5000 282° West 253 291 4,000  Level New York TRACON
11:06AM 40.2185 -74.5080 315° West  Level FlightAware Approximate
11:06AM 40.2667 -74.5333 339° North 278 320 4,000  Level New York TRACON
11:07AM 40.2689 -74.5689 323° Northwest  Level FlightAware Approximate
11:07AM 40.3333 -74.5500 349° North 279 321 4,000  Level New York TRACON
11:08AM 40.4000 -74.5500 360° North 279 321 4,000  Level New York TRACON
11:09AM 40.4833 -74.5667 351° North 278 320 4,000  Level New York TRACON
11:10AM 40.5667 -74.5667 360° North 279 321 4,000  Level New York TRACON
11:11AM 40.6500 -74.5667 360° North 285 328 4,000  Level New York TRACON
11:12AM 40.7333 -74.5667 360° North 283 326 4,000  Level New York TRACON
11:13AM 40.8000 -74.5500 11° North 282 325 4,000  Level New York TRACON
11:14AM 40.8833 -74.5500 360° North 282 325 4,000  Level New York TRACON
11:15AM 40.9500 -74.5167 21° North 290 334 4,000  Level New York TRACON
11:16AM 41.0167 -74.4500 37° Northeast 291 335 4,000 -480 Level New York TRACON
11:17AM 41.0500 -74.3500 66° East 281 323 3,100 -540 Descending New York TRACON
11:18AM 41.0667 -74.2500 78° East 288 331 3,000 -60 Descending New York TRACON
11:19AM 41.0500 -74.1500 102° East 270 311 3,000 -540 Level New York TRACON
11:20AM 41.0333 -74.0667 105° East 238 274 2,000 -780 Descending New York TRACON
11:21AM 40.9833 -74.0500 166° South 186 214 1,500 -300 Descending New York TRACON
11:22AM 40.9333 -74.0500 180° South 169 194 1,500 -360 Level New York TRACON
11:23AM 40.9000 -74.0500 180° South 137 158 800 -660 Descending New York TRACON
11:24AM 40.8667 -74.0667 201° Southwest 115 132 200 -600 Descending New York TRACON